sensor_id;sensor_type;location;lat;lon;timestamp;P1;durP1;ratioP1;P2;durP2;ratioP2
15202;SDS011;7702;51.046;5.184;2023-04-25T00:00:21;9.57;;;5.17;;
15202;SDS011;7702;51.046;5.184;2023-04-25T00:02:47;15.20;;;5.60;;
15202;SDS011;7702;51.046;5.184;2023-04-25T00:05:12;15.47;;;5.10;;
15202;SDS011;7702;51.046;5.184;2023-04-25T00:07:40;11.93;;;5.77;;
15202;SDS011;7702;51.046;5.184;2023-04-25T00:10:07;12.43;;;5.20;;
15202;SDS011;7702;51.046;5.184;2023-04-25T00:12:34;10.37;;;4.80;;
15202;SDS011;7702;51.046;5.184;2023-04-25T00:15:00;9.83;;;5.33;;
15202;SDS011;7702;51.046;5.184;2023-04-25T00:17:26;16.40;;;5.60;;
15202;SDS011;7702;51.046;5.184;2023-04-25T00:19:53;8.87;;;5.17;;
15202;SDS011;7702;51.046;5.184;2023-04-25T00:22:19;15.23;;;5.63;;
15202;SDS011;7702;51.046;5.184;2023-04-25T00:24:45;14.37;;;5.73;;
15202;SDS011;7702;51.046;5.184;2023-04-25T00:27:11;13.53;;;5.47;;
15202;SDS011;7702;51.046;5.184;2023-04-25T00:29:37;13.60;;;5.10;;
15202;SDS011;7702;51.046;5.184;2023-04-25T00:32:02;12.97;;;5.10;;
15202;SDS011;7702;51.046;5.184;2023-04-25T00:34:28;13.57;;;4.83;;
15202;SDS011;7702;51.046;5.184;2023-04-25T00:36:54;11.73;;;5.00;;
15202;SDS011;7702;51.046;5.184;2023-04-25T00:39:20;12.80;;;4.60;;
15202;SDS011;7702;51.046;5.184;2023-04-25T00:41:45;10.10;;;4.60;;
15202;SDS011;7702;51.046;5.184;2023-04-25T00:44:12;9.60;;;5.50;;
15202;SDS011;7702;51.046;5.184;2023-04-25T00:46:38;11.97;;;4.40;;
15202;SDS011;7702;51.046;5.184;2023-04-25T00:49:04;16.97;;;4.57;;
15202;SDS011;7702;51.046;5.184;2023-04-25T00:51:30;13.87;;;4.80;;
15202;SDS011;7702;51.046;5.184;2023-04-25T00:53:57;11.80;;;4.63;;
15202;SDS011;7702;51.046;5.184;2023-04-25T00:56:23;14.13;;;4.83;;
15202;SDS011;7702;51.046;5.184;2023-04-25T00:58:50;12.10;;;5.03;;
15202;SDS011;7702;51.046;5.184;2023-04-25T01:01:20;10.70;;;4.57;;
15202;SDS011;7702;51.046;5.184;2023-04-25T01:03:46;15.23;;;5.30;;
15202;SDS011;7702;51.046;5.184;2023-04-25T01:06:14;11.57;;;4.97;;
15202;SDS011;7702;51.046;5.184;2023-04-25T01:08:41;14.93;;;5.30;;
15202;SDS011;7702;51.046;5.184;2023-04-25T01:11:07;14.70;;;5.83;;
15202;SDS011;7702;51.046;5.184;2023-04-25T01:13:33;14.57;;;5.60;;
15202;SDS011;7702;51.046;5.184;2023-04-25T01:15:59;13.23;;;6.20;;
15202;SDS011;7702;51.046;5.184;2023-04-25T01:18:26;10.53;;;5.40;;
15202;SDS011;7702;51.046;5.184;2023-04-25T01:20:52;14.87;;;6.77;;
15202;SDS011;7702;51.046;5.184;2023-04-25T01:23:18;16.63;;;6.40;;
15202;SDS011;7702;51.046;5.184;2023-04-25T01:25:45;17.53;;;7.90;;
15202;SDS011;7702;51.046;5.184;2023-04-25T01:28:12;11.80;;;6.40;;
15202;SDS011;7702;51.046;5.184;2023-04-25T01:30:38;17.10;;;7.47;;
15202;SDS011;7702;51.046;5.184;2023-04-25T01:33:04;19.13;;;7.70;;
15202;SDS011;7702;51.046;5.184;2023-04-25T01:35:31;20.47;;;8.20;;
15202;SDS011;7702;51.046;5.184;2023-04-25T01:37:57;23.90;;;9.47;;
15202;SDS011;7702;51.046;5.184;2023-04-25T01:40:23;22.00;;;8.80;;
15202;SDS011;7702;51.046;5.184;2023-04-25T01:42:50;16.10;;;7.20;;
15202;SDS011;7702;51.046;5.184;2023-04-25T01:45:17;17.90;;;9.37;;
15202;SDS011;7702;51.046;5.184;2023-04-25T01:47:43;17.57;;;8.23;;
15202;SDS011;7702;51.046;5.184;2023-04-25T01:50:13;13.97;;;7.53;;
15202;SDS011;7702;51.046;5.184;2023-04-25T01:52:40;21.60;;;10.17;;
15202;SDS011;7702;51.046;5.184;2023-04-25T01:55:06;13.90;;;6.67;;
15202;SDS011;7702;51.046;5.184;2023-04-25T01:57:32;19.00;;;7.17;;
15202;SDS011;7702;51.046;5.184;2023-04-25T01:59:59;17.60;;;7.37;;
15202;SDS011;7702;51.046;5.184;2023-04-25T02:02:26;16.23;;;6.87;;
15202;SDS011;7702;51.046;5.184;2023-04-25T02:04:52;19.17;;;7.70;;
15202;SDS011;7702;51.046;5.184;2023-04-25T02:07:17;12.60;;;5.53;;
15202;SDS011;7702;51.046;5.184;2023-04-25T02:09:43;19.60;;;5.90;;
15202;SDS011;7702;51.046;5.184;2023-04-25T02:12:09;13.80;;;5.50;;
15202;SDS011;7702;51.046;5.184;2023-04-25T02:14:35;12.17;;;5.80;;
15202;SDS011;7702;51.046;5.184;2023-04-25T02:17:01;12.00;;;4.97;;
15202;SDS011;7702;51.046;5.184;2023-04-25T02:19:27;9.47;;;5.47;;
15202;SDS011;7702;51.046;5.184;2023-04-25T02:21:53;18.57;;;5.43;;
15202;SDS011;7702;51.046;5.184;2023-04-25T02:24:19;13.27;;;5.50;;
15202;SDS011;7702;51.046;5.184;2023-04-25T02:26:45;12.40;;;5.23;;
15202;SDS011;7702;51.046;5.184;2023-04-25T02:29:11;15.57;;;5.43;;
15202;SDS011;7702;51.046;5.184;2023-04-25T02:31:37;13.27;;;5.37;;
15202;SDS011;7702;51.046;5.184;2023-04-25T02:34:03;12.67;;;5.30;;
15202;SDS011;7702;51.046;5.184;2023-04-25T02:36:29;14.30;;;5.33;;
15202;SDS011;7702;51.046;5.184;2023-04-25T02:38:59;13.83;;;5.37;;
15202;SDS011;7702;51.046;5.184;2023-04-25T02:41:25;16.10;;;5.63;;
15202;SDS011;7702;51.046;5.184;2023-04-25T02:43:51;12.83;;;5.60;;
15202;SDS011;7702;51.046;5.184;2023-04-25T02:46:17;8.70;;;4.60;;
15202;SDS011;7702;51.046;5.184;2023-04-25T02:48:42;13.77;;;5.63;;
15202;SDS011;7702;51.046;5.184;2023-04-25T02:51:08;13.37;;;5.70;;
15202;SDS011;7702;51.046;5.184;2023-04-25T02:53:34;13.23;;;5.30;;
15202;SDS011;7702;51.046;5.184;2023-04-25T02:56:00;18.43;;;5.73;;
15202;SDS011;7702;51.046;5.184;2023-04-25T02:58:26;13.23;;;4.93;;
15202;SDS011;7702;51.046;5.184;2023-04-25T03:00:53;20.60;;;6.00;;
15202;SDS011;7702;51.046;5.184;2023-04-25T03:03:19;16.53;;;6.10;;
15202;SDS011;7702;51.046;5.184;2023-04-25T03:05:47;15.03;;;6.57;;
15202;SDS011;7702;51.046;5.184;2023-04-25T03:08:13;14.73;;;6.03;;
15202;SDS011;7702;51.046;5.184;2023-04-25T03:10:39;16.70;;;5.93;;
15202;SDS011;7702;51.046;5.184;2023-04-25T03:13:05;15.50;;;7.20;;
15202;SDS011;7702;51.046;5.184;2023-04-25T03:15:31;16.03;;;6.47;;
15202;SDS011;7702;51.046;5.184;2023-04-25T03:17:56;17.83;;;7.43;;
15202;SDS011;7702;51.046;5.184;2023-04-25T03:20:22;14.90;;;5.83;;
15202;SDS011;7702;51.046;5.184;2023-04-25T03:22:48;14.13;;;6.80;;
15202;SDS011;7702;51.046;5.184;2023-04-25T03:25:13;13.17;;;6.27;;
15202;SDS011;7702;51.046;5.184;2023-04-25T03:27:39;14.80;;;6.87;;
15202;SDS011;7702;51.046;5.184;2023-04-25T03:30:05;18.50;;;8.00;;
15202;SDS011;7702;51.046;5.184;2023-04-25T03:32:32;22.50;;;8.13;;
15202;SDS011;7702;51.046;5.184;2023-04-25T03:34:58;18.97;;;9.30;;
15202;SDS011;7702;51.046;5.184;2023-04-25T03:37:24;14.67;;;8.83;;
15202;SDS011;7702;51.046;5.184;2023-04-25T03:39:50;11.73;;;6.10;;
15202;SDS011;7702;51.046;5.184;2023-04-25T03:42:16;12.93;;;5.83;;
15202;SDS011;7702;51.046;5.184;2023-04-25T03:44:42;9.57;;;5.13;;
15202;SDS011;7702;51.046;5.184;2023-04-25T03:47:08;11.93;;;5.10;;
15202;SDS011;7702;51.046;5.184;2023-04-25T03:49:34;11.87;;;5.20;;
15202;SDS011;7702;51.046;5.184;2023-04-25T03:52:01;8.23;;;4.53;;
15202;SDS011;7702;51.046;5.184;2023-04-25T03:54:27;9.93;;;3.77;;
15202;SDS011;7702;51.046;5.184;2023-04-25T03:56:52;9.87;;;4.33;;
15202;SDS011;7702;51.046;5.184;2023-04-25T03:59:18;10.13;;;4.50;;
15202;SDS011;7702;51.046;5.184;2023-04-25T04:01:44;8.83;;;4.37;;
15202;SDS011;7702;51.046;5.184;2023-04-25T04:04:10;12.27;;;4.37;;
15202;SDS011;7702;51.046;5.184;2023-04-25T04:06:35;10.60;;;4.63;;
15202;SDS011;7702;51.046;5.184;2023-04-25T04:09:01;9.53;;;4.03;;
15202;SDS011;7702;51.046;5.184;2023-04-25T04:11:28;12.03;;;4.20;;
15202;SDS011;7702;51.046;5.184;2023-04-25T04:13:54;11.53;;;4.67;;
15202;SDS011;7702;51.046;5.184;2023-04-25T04:16:19;7.47;;;3.70;;
15202;SDS011;7702;51.046;5.184;2023-04-25T04:18:45;9.33;;;4.23;;
15202;SDS011;7702;51.046;5.184;2023-04-25T04:21:11;8.93;;;4.63;;
15202;SDS011;7702;51.046;5.184;2023-04-25T04:23:37;9.23;;;4.23;;
15202;SDS011;7702;51.046;5.184;2023-04-25T04:26:03;9.03;;;4.30;;
15202;SDS011;7702;51.046;5.184;2023-04-25T04:28:29;9.00;;;4.40;;
15202;SDS011;7702;51.046;5.184;2023-04-25T04:30:54;8.37;;;4.40;;
15202;SDS011;7702;51.046;5.184;2023-04-25T04:33:20;9.00;;;4.33;;
15202;SDS011;7702;51.046;5.184;2023-04-25T04:35:46;11.73;;;4.70;;
15202;SDS011;7702;51.046;5.184;2023-04-25T04:38:12;10.07;;;4.60;;
15202;SDS011;7702;51.046;5.184;2023-04-25T04:40:40;9.83;;;4.43;;
15202;SDS011;7702;51.046;5.184;2023-04-25T04:43:08;13.57;;;5.20;;
15202;SDS011;7702;51.046;5.184;2023-04-25T04:45:35;20.20;;;7.97;;
15202;SDS011;7702;51.046;5.184;2023-04-25T04:48:03;19.83;;;8.47;;
15202;SDS011;7702;51.046;5.184;2023-04-25T04:50:30;20.10;;;9.40;;
15202;SDS011;7702;51.046;5.184;2023-04-25T04:52:57;17.80;;;10.60;;
15202;SDS011;7702;51.046;5.184;2023-04-25T04:55:23;15.57;;;9.43;;
15202;SDS011;7702;51.046;5.184;2023-04-25T04:57:49;19.90;;;9.83;;
15202;SDS011;7702;51.046;5.184;2023-04-25T05:00:15;26.20;;;10.57;;
15202;SDS011;7702;51.046;5.184;2023-04-25T05:02:42;22.00;;;10.27;;
15202;SDS011;7702;51.046;5.184;2023-04-25T05:05:08;18.73;;;10.33;;
15202;SDS011;7702;51.046;5.184;2023-04-25T05:07:34;21.27;;;8.67;;
15202;SDS011;7702;51.046;5.184;2023-04-25T05:09:59;16.53;;;7.73;;
15202;SDS011;7702;51.046;5.184;2023-04-25T05:12:25;19.03;;;8.33;;
15202;SDS011;7702;51.046;5.184;2023-04-25T05:14:51;13.90;;;6.93;;
15202;SDS011;7702;51.046;5.184;2023-04-25T05:17:16;17.40;;;7.50;;
15202;SDS011;7702;51.046;5.184;2023-04-25T05:19:42;13.23;;;5.90;;
15202;SDS011;7702;51.046;5.184;2023-04-25T05:22:08;12.07;;;5.73;;
15202;SDS011;7702;51.046;5.184;2023-04-25T05:24:33;9.97;;;5.17;;
15202;SDS011;7702;51.046;5.184;2023-04-25T05:26:59;12.90;;;5.57;;
15202;SDS011;7702;51.046;5.184;2023-04-25T05:29:24;11.33;;;5.33;;
15202;SDS011;7702;51.046;5.184;2023-04-25T05:31:50;10.37;;;6.60;;
15202;SDS011;7702;51.046;5.184;2023-04-25T05:34:16;13.63;;;6.03;;
15202;SDS011;7702;51.046;5.184;2023-04-25T05:36:41;15.53;;;6.47;;
15202;SDS011;7702;51.046;5.184;2023-04-25T05:39:07;7.27;;;5.53;;
15202;SDS011;7702;51.046;5.184;2023-04-25T05:41:34;10.80;;;6.37;;
15202;SDS011;7702;51.046;5.184;2023-04-25T05:44:00;13.60;;;6.60;;
15202;SDS011;7702;51.046;5.184;2023-04-25T05:46:25;11.93;;;6.67;;
15202;SDS011;7702;51.046;5.184;2023-04-25T05:48:51;15.63;;;6.63;;
15202;SDS011;7702;51.046;5.184;2023-04-25T05:51:16;15.97;;;7.23;;
15202;SDS011;7702;51.046;5.184;2023-04-25T05:53:43;11.10;;;7.43;;
15202;SDS011;7702;51.046;5.184;2023-04-25T05:56:09;18.80;;;7.70;;
15202;SDS011;7702;51.046;5.184;2023-04-25T05:58:35;11.50;;;7.23;;
15202;SDS011;7702;51.046;5.184;2023-04-25T06:01:01;13.43;;;7.80;;
15202;SDS011;7702;51.046;5.184;2023-04-25T06:03:27;13.53;;;7.47;;
15202;SDS011;7702;51.046;5.184;2023-04-25T06:05:53;11.90;;;7.70;;
15202;SDS011;7702;51.046;5.184;2023-04-25T06:08:19;16.23;;;8.07;;
15202;SDS011;7702;51.046;5.184;2023-04-25T06:10:45;13.17;;;8.80;;
15202;SDS011;7702;51.046;5.184;2023-04-25T06:13:10;14.23;;;7.63;;
15202;SDS011;7702;51.046;5.184;2023-04-25T06:15:36;18.63;;;9.47;;
15202;SDS011;7702;51.046;5.184;2023-04-25T06:18:01;16.83;;;8.90;;
15202;SDS011;7702;51.046;5.184;2023-04-25T06:20:27;14.77;;;8.60;;
15202;SDS011;7702;51.046;5.184;2023-04-25T06:22:53;17.33;;;8.77;;
15202;SDS011;7702;51.046;5.184;2023-04-25T06:25:19;21.27;;;8.47;;
15202;SDS011;7702;51.046;5.184;2023-04-25T06:27:46;16.67;;;8.37;;
15202;SDS011;7702;51.046;5.184;2023-04-25T06:30:11;16.07;;;8.77;;
15202;SDS011;7702;51.046;5.184;2023-04-25T06:32:38;19.33;;;8.20;;
15202;SDS011;7702;51.046;5.184;2023-04-25T06:35:04;15.60;;;7.10;;
15202;SDS011;7702;51.046;5.184;2023-04-25T06:37:30;20.27;;;7.57;;
15202;SDS011;7702;51.046;5.184;2023-04-25T06:39:56;15.10;;;7.67;;
15202;SDS011;7702;51.046;5.184;2023-04-25T06:42:21;18.53;;;6.97;;
15202;SDS011;7702;51.046;5.184;2023-04-25T06:44:47;19.10;;;8.67;;
15202;SDS011;7702;51.046;5.184;2023-04-25T06:47:14;15.17;;;8.00;;
15202;SDS011;7702;51.046;5.184;2023-04-25T06:49:40;20.13;;;7.80;;
15202;SDS011;7702;51.046;5.184;2023-04-25T06:52:05;16.73;;;7.33;;
15202;SDS011;7702;51.046;5.184;2023-04-25T06:54:32;15.50;;;7.00;;
15202;SDS011;7702;51.046;5.184;2023-04-25T06:56:57;14.10;;;6.87;;
15202;SDS011;7702;51.046;5.184;2023-04-25T06:59:25;19.90;;;7.53;;
15202;SDS011;7702;51.046;5.184;2023-04-25T07:01:52;13.77;;;6.30;;
15202;SDS011;7702;51.046;5.184;2023-04-25T07:04:17;18.13;;;6.60;;
15202;SDS011;7702;51.046;5.184;2023-04-25T07:06:43;11.40;;;6.53;;
15202;SDS011;7702;51.046;5.184;2023-04-25T07:09:09;15.90;;;6.40;;
15202;SDS011;7702;51.046;5.184;2023-04-25T07:11:35;14.67;;;6.87;;
15202;SDS011;7702;51.046;5.184;2023-04-25T07:14:01;14.27;;;6.90;;
15202;SDS011;7702;51.046;5.184;2023-04-25T07:16:27;12.77;;;6.30;;
15202;SDS011;7702;51.046;5.184;2023-04-25T07:18:53;17.93;;;7.37;;
15202;SDS011;7702;51.046;5.184;2023-04-25T07:21:19;12.10;;;5.67;;
15202;SDS011;7702;51.046;5.184;2023-04-25T07:23:45;16.57;;;5.77;;
15202;SDS011;7702;51.046;5.184;2023-04-25T07:26:11;8.57;;;4.20;;
15202;SDS011;7702;51.046;5.184;2023-04-25T07:28:37;9.90;;;5.53;;
15202;SDS011;7702;51.046;5.184;2023-04-25T07:31:02;8.83;;;5.10;;
15202;SDS011;7702;51.046;5.184;2023-04-25T07:33:28;9.57;;;4.73;;
15202;SDS011;7702;51.046;5.184;2023-04-25T07:35:54;16.47;;;5.27;;
15202;SDS011;7702;51.046;5.184;2023-04-25T07:38:21;11.00;;;4.13;;
15202;SDS011;7702;51.046;5.184;2023-04-25T07:40:49;10.53;;;5.97;;
15202;SDS011;7702;51.046;5.184;2023-04-25T07:43:16;9.33;;;4.53;;
15202;SDS011;7702;51.046;5.184;2023-04-25T07:45:42;9.20;;;4.17;;
15202;SDS011;7702;51.046;5.184;2023-04-25T07:48:08;9.07;;;4.07;;
15202;SDS011;7702;51.046;5.184;2023-04-25T07:50:35;5.60;;;3.47;;
15202;SDS011;7702;51.046;5.184;2023-04-25T07:53:01;8.17;;;3.60;;
15202;SDS011;7702;51.046;5.184;2023-04-25T07:55:27;7.63;;;3.60;;
15202;SDS011;7702;51.046;5.184;2023-04-25T07:57:53;12.47;;;4.60;;
15202;SDS011;7702;51.046;5.184;2023-04-25T08:00:18;11.20;;;4.23;;
15202;SDS011;7702;51.046;5.184;2023-04-25T08:02:44;9.50;;;4.10;;
15202;SDS011;7702;51.046;5.184;2023-04-25T08:05:10;9.20;;;3.73;;
15202;SDS011;7702;51.046;5.184;2023-04-25T08:07:40;12.40;;;6.53;;
15202;SDS011;7702;51.046;5.184;2023-04-25T08:10:06;9.43;;;5.13;;
15202;SDS011;7702;51.046;5.184;2023-04-25T08:12:32;22.67;;;6.07;;
15202;SDS011;7702;51.046;5.184;2023-04-25T08:14:58;8.33;;;4.17;;
15202;SDS011;7702;51.046;5.184;2023-04-25T08:17:24;11.70;;;4.83;;
15202;SDS011;7702;51.046;5.184;2023-04-25T08:19:49;13.57;;;5.50;;
15202;SDS011;7702;51.046;5.184;2023-04-25T08:22:16;10.07;;;4.97;;
15202;SDS011;7702;51.046;5.184;2023-04-25T08:24:41;8.47;;;4.67;;
15202;SDS011;7702;51.046;5.184;2023-04-25T08:27:07;11.13;;;4.20;;
15202;SDS011;7702;51.046;5.184;2023-04-25T08:29:33;9.30;;;4.37;;
15202;SDS011;7702;51.046;5.184;2023-04-25T08:32:00;9.57;;;4.00;;
15202;SDS011;7702;51.046;5.184;2023-04-25T08:34:26;15.33;;;4.23;;
15202;SDS011;7702;51.046;5.184;2023-04-25T08:36:51;13.57;;;4.90;;
15202;SDS011;7702;51.046;5.184;2023-04-25T08:39:17;7.10;;;3.50;;
15202;SDS011;7702;51.046;5.184;2023-04-25T08:41:43;11.50;;;4.87;;
15202;SDS011;7702;51.046;5.184;2023-04-25T08:44:10;10.60;;;4.37;;
15202;SDS011;7702;51.046;5.184;2023-04-25T08:46:39;7.53;;;3.43;;
15202;SDS011;7702;51.046;5.184;2023-04-25T08:49:06;7.83;;;3.00;;
15202;SDS011;7702;51.046;5.184;2023-04-25T08:51:34;13.77;;;3.53;;
15202;SDS011;7702;51.046;5.184;2023-04-25T08:54:10;8.93;;;3.33;;
15202;SDS011;7702;51.046;5.184;2023-04-25T08:56:40;8.07;;;3.30;;
15202;SDS011;7702;51.046;5.184;2023-04-25T08:59:12;7.33;;;3.77;;
15202;SDS011;7702;51.046;5.184;2023-04-25T09:01:38;5.77;;;2.67;;
15202;SDS011;7702;51.046;5.184;2023-04-25T09:04:04;7.20;;;3.37;;
15202;SDS011;7702;51.046;5.184;2023-04-25T09:06:30;8.87;;;3.23;;
15202;SDS011;7702;51.046;5.184;2023-04-25T09:09:03;7.20;;;2.67;;
15202;SDS011;7702;51.046;5.184;2023-04-25T09:11:31;8.77;;;2.47;;
15202;SDS011;7702;51.046;5.184;2023-04-25T09:19:21;6.47;;;2.60;;
15202;SDS011;7702;51.046;5.184;2023-04-25T09:21:51;5.43;;;2.27;;
15202;SDS011;7702;51.046;5.184;2023-04-25T09:24:29;5.97;;;2.10;;
15202;SDS011;7702;51.046;5.184;2023-04-25T09:27:00;6.50;;;2.27;;
15202;SDS011;7702;51.046;5.184;2023-04-25T09:29:36;5.03;;;2.30;;
15202;SDS011;7702;51.046;5.184;2023-04-25T09:32:19;5.27;;;2.20;;
15202;SDS011;7702;51.046;5.184;2023-04-25T09:34:50;7.07;;;1.83;;
15202;SDS011;7702;51.046;5.184;2023-04-25T09:39:47;7.70;;;3.00;;
15202;SDS011;7702;51.046;5.184;2023-04-25T09:42:15;6.60;;;2.00;;
15202;SDS011;7702;51.046;5.184;2023-04-25T09:44:45;5.13;;;2.10;;
15202;SDS011;7702;51.046;5.184;2023-04-25T09:47:11;5.07;;;2.20;;
15202;SDS011;7702;51.046;5.184;2023-04-25T09:49:39;4.37;;;2.60;;
15202;SDS011;7702;51.046;5.184;2023-04-25T09:52:09;7.28;;;2.60;;
15202;SDS011;7702;51.046;5.184;2023-04-25T09:54:39;7.30;;;2.58;;
15202;SDS011;7702;51.046;5.184;2023-04-25T09:57:16;6.07;;;2.13;;
15202;SDS011;7702;51.046;5.184;2023-04-25T09:59:46;7.87;;;2.60;;
15202;SDS011;7702;51.046;5.184;2023-04-25T10:02:15;5.40;;;2.10;;
15202;SDS011;7702;51.046;5.184;2023-04-25T10:04:44;5.50;;;2.50;;
15202;SDS011;7702;51.046;5.184;2023-04-25T10:07:12;7.07;;;2.80;;
15202;SDS011;7702;51.046;5.184;2023-04-25T10:09:39;4.00;;;2.17;;
15202;SDS011;7702;51.046;5.184;2023-04-25T10:12:06;3.23;;;1.97;;
15202;SDS011;7702;51.046;5.184;2023-04-25T10:14:33;6.10;;;1.50;;
15202;SDS011;7702;51.046;5.184;2023-04-25T10:16:59;3.70;;;1.27;;
15202;SDS011;7702;51.046;5.184;2023-04-25T10:19:26;4.00;;;1.57;;
15202;SDS011;7702;51.046;5.184;2023-04-25T10:24:27;4.33;;;1.47;;
15202;SDS011;7702;51.046;5.184;2023-04-25T10:26:53;4.93;;;2.10;;
15202;SDS011;7702;51.046;5.184;2023-04-25T10:29:24;4.97;;;2.10;;
15202;SDS011;7702;51.046;5.184;2023-04-25T10:31:50;4.50;;;2.10;;
15202;SDS011;7702;51.046;5.184;2023-04-25T10:34:16;4.53;;;1.93;;
15202;SDS011;7702;51.046;5.184;2023-04-25T10:36:42;5.07;;;1.90;;
15202;SDS011;7702;51.046;5.184;2023-04-25T10:39:15;4.43;;;1.20;;
15202;SDS011;7702;51.046;5.184;2023-04-25T10:41:52;4.23;;;1.30;;
15202;SDS011;7702;51.046;5.184;2023-04-25T10:44:22;3.60;;;1.53;;
15202;SDS011;7702;51.046;5.184;2023-04-25T10:46:47;6.03;;;1.30;;
15202;SDS011;7702;51.046;5.184;2023-04-25T10:54:54;2.43;;;1.20;;
15202;SDS011;7702;51.046;5.184;2023-04-25T10:59:57;4.30;;;1.53;;
15202;SDS011;7702;51.046;5.184;2023-04-25T11:02:26;4.07;;;1.30;;
15202;SDS011;7702;51.046;5.184;2023-04-25T11:04:53;3.60;;;1.33;;
15202;SDS011;7702;51.046;5.184;2023-04-25T11:10:31;5.77;;;1.93;;
15202;SDS011;7702;51.046;5.184;2023-04-25T11:13:00;5.97;;;1.83;;
15202;SDS011;7702;51.046;5.184;2023-04-25T11:15:26;8.67;;;2.20;;
15202;SDS011;7702;51.046;5.184;2023-04-25T11:17:52;4.73;;;1.90;;
15202;SDS011;7702;51.046;5.184;2023-04-25T11:20:18;4.83;;;1.70;;
15202;SDS011;7702;51.046;5.184;2023-04-25T11:22:45;4.67;;;1.43;;
15202;SDS011;7702;51.046;5.184;2023-04-25T11:25:11;2.27;;;1.20;;
15202;SDS011;7702;51.046;5.184;2023-04-25T11:27:55;4.77;;;1.50;;
15202;SDS011;7702;51.046;5.184;2023-04-25T11:30:22;3.53;;;1.37;;
15202;SDS011;7702;51.046;5.184;2023-04-25T11:32:49;6.13;;;1.80;;
15202;SDS011;7702;51.046;5.184;2023-04-25T11:35:17;2.73;;;1.53;;
15202;SDS011;7702;51.046;5.184;2023-04-25T11:37:43;4.60;;;1.70;;
15202;SDS011;7702;51.046;5.184;2023-04-25T11:40:10;5.27;;;1.70;;
15202;SDS011;7702;51.046;5.184;2023-04-25T11:42:43;4.83;;;1.67;;
15202;SDS011;7702;51.046;5.184;2023-04-25T11:45:10;3.37;;;1.50;;
15202;SDS011;7702;51.046;5.184;2023-04-25T11:47:36;3.77;;;2.10;;
15202;SDS011;7702;51.046;5.184;2023-04-25T11:50:03;3.57;;;1.70;;
15202;SDS011;7702;51.046;5.184;2023-04-25T11:52:43;5.23;;;2.03;;
15202;SDS011;7702;51.046;5.184;2023-04-25T11:55:15;5.43;;;2.20;;
15202;SDS011;7702;51.046;5.184;2023-04-25T11:57:42;4.37;;;2.30;;
15202;SDS011;7702;51.046;5.184;2023-04-25T12:02:44;8.23;;;2.53;;
15202;SDS011;7702;51.046;5.184;2023-04-25T12:05:12;5.73;;;2.80;;
15202;SDS011;7702;51.046;5.184;2023-04-25T12:07:39;3.00;;;2.43;;
15202;SDS011;7702;51.046;5.184;2023-04-25T12:12:36;7.27;;;3.37;;
15202;SDS011;7702;51.046;5.184;2023-04-25T12:15:09;8.93;;;2.90;;
15202;SDS011;7702;51.046;5.184;2023-04-25T12:17:50;5.27;;;2.37;;
15202;SDS011;7702;51.046;5.184;2023-04-25T12:20:18;5.07;;;2.53;;
15202;SDS011;7702;51.046;5.184;2023-04-25T12:22:46;5.87;;;2.17;;
15202;SDS011;7702;51.046;5.184;2023-04-25T12:33:29;2.67;;;1.70;;
15202;SDS011;7702;51.046;5.184;2023-04-25T12:35:58;5.27;;;2.20;;
15202;SDS011;7702;51.046;5.184;2023-04-25T12:38:29;5.37;;;1.97;;
15202;SDS011;7702;51.046;5.184;2023-04-25T12:40:59;6.23;;;2.60;;
15202;SDS011;7702;51.046;5.184;2023-04-25T12:43:25;6.27;;;2.53;;
15202;SDS011;7702;51.046;5.184;2023-04-25T12:45:52;6.17;;;2.97;;
15202;SDS011;7702;51.046;5.184;2023-04-25T12:48:19;8.73;;;3.10;;
15202;SDS011;7702;51.046;5.184;2023-04-25T12:50:45;7.30;;;2.70;;
15202;SDS011;7702;51.046;5.184;2023-04-25T12:53:17;6.57;;;2.97;;
15202;SDS011;7702;51.046;5.184;2023-04-25T12:55:44;6.83;;;3.10;;
15202;SDS011;7702;51.046;5.184;2023-04-25T12:58:12;8.43;;;3.60;;
15202;SDS011;7702;51.046;5.184;2023-04-25T13:00:38;4.63;;;2.00;;
15202;SDS011;7702;51.046;5.184;2023-04-25T13:03:04;3.53;;;1.80;;
15202;SDS011;7702;51.046;5.184;2023-04-25T13:05:30;4.87;;;1.60;;
15202;SDS011;7702;51.046;5.184;2023-04-25T13:07:56;6.17;;;1.73;;
15202;SDS011;7702;51.046;5.184;2023-04-25T13:10:22;3.20;;;1.80;;
15202;SDS011;7702;51.046;5.184;2023-04-25T13:12:47;3.67;;;1.70;;
15202;SDS011;7702;51.046;5.184;2023-04-25T13:15:13;5.90;;;2.40;;
15202;SDS011;7702;51.046;5.184;2023-04-25T13:17:40;2.70;;;1.57;;
15202;SDS011;7702;51.046;5.184;2023-04-25T13:20:06;7.07;;;2.20;;
15202;SDS011;7702;51.046;5.184;2023-04-25T13:22:37;3.97;;;1.87;;
15202;SDS011;7702;51.046;5.184;2023-04-25T13:25:04;2.87;;;1.83;;
15202;SDS011;7702;51.046;5.184;2023-04-25T13:27:31;1.53;;;1.03;;
15202;SDS011;7702;51.046;5.184;2023-04-25T13:29:59;4.27;;;1.20;;
15202;SDS011;7702;51.046;5.184;2023-04-25T13:32:25;4.10;;;1.10;;
15202;SDS011;7702;51.046;5.184;2023-04-25T13:34:51;3.77;;;1.17;;
15202;SDS011;7702;51.046;5.184;2023-04-25T13:37:17;2.93;;;1.67;;
15202;SDS011;7702;51.046;5.184;2023-04-25T13:39:43;2.90;;;1.33;;
15202;SDS011;7702;51.046;5.184;2023-04-25T13:42:10;2.20;;;0.80;;
15202;SDS011;7702;51.046;5.184;2023-04-25T13:44:36;3.47;;;1.00;;
15202;SDS011;7702;51.046;5.184;2023-04-25T13:47:02;3.13;;;1.10;;
15202;SDS011;7702;51.046;5.184;2023-04-25T13:49:27;2.90;;;0.80;;
15202;SDS011;7702;51.046;5.184;2023-04-25T13:51:53;1.37;;;0.90;;
15202;SDS011;7702;51.046;5.184;2023-04-25T13:54:19;2.33;;;1.10;;
15202;SDS011;7702;51.046;5.184;2023-04-25T13:56:45;4.03;;;1.30;;
15202;SDS011;7702;51.046;5.184;2023-04-25T13:59:10;2.67;;;1.10;;
15202;SDS011;7702;51.046;5.184;2023-04-25T14:01:36;2.37;;;1.20;;
15202;SDS011;7702;51.046;5.184;2023-04-25T14:04:02;5.73;;;1.43;;
15202;SDS011;7702;51.046;5.184;2023-04-25T14:06:31;4.53;;;1.53;;
15202;SDS011;7702;51.046;5.184;2023-04-25T14:08:57;4.00;;;1.23;;
15202;SDS011;7702;51.046;5.184;2023-04-25T14:11:25;6.70;;;1.63;;
15202;SDS011;7702;51.046;5.184;2023-04-25T14:13:51;1.77;;;1.10;;
15202;SDS011;7702;51.046;5.184;2023-04-25T14:16:17;4.80;;;1.40;;
15202;SDS011;7702;51.046;5.184;2023-04-25T14:18:42;1.63;;;1.10;;
15202;SDS011;7702;51.046;5.184;2023-04-25T14:21:08;3.00;;;1.20;;
15202;SDS011;7702;51.046;5.184;2023-04-25T14:23:35;3.47;;;1.33;;
15202;SDS011;7702;51.046;5.184;2023-04-25T14:26:00;4.53;;;1.70;;
15202;SDS011;7702;51.046;5.184;2023-04-25T14:28:26;4.20;;;1.40;;
15202;SDS011;7702;51.046;5.184;2023-04-25T14:30:52;2.77;;;1.13;;
15202;SDS011;7702;51.046;5.184;2023-04-25T14:33:18;4.10;;;1.40;;
15202;SDS011;7702;51.046;5.184;2023-04-25T14:35:44;4.63;;;1.40;;
15202;SDS011;7702;51.046;5.184;2023-04-25T14:38:09;3.13;;;1.20;;
15202;SDS011;7702;51.046;5.184;2023-04-25T14:40:35;2.67;;;1.37;;
15202;SDS011;7702;51.046;5.184;2023-04-25T14:43:01;3.73;;;1.10;;
15202;SDS011;7702;51.046;5.184;2023-04-25T14:45:27;3.97;;;1.03;;
15202;SDS011;7702;51.046;5.184;2023-04-25T14:47:53;4.43;;;1.60;;
15202;SDS011;7702;51.046;5.184;2023-04-25T14:50:19;3.27;;;1.70;;
15202;SDS011;7702;51.046;5.184;2023-04-25T14:52:44;3.70;;;1.80;;
15202;SDS011;7702;51.046;5.184;2023-04-25T14:55:10;4.97;;;1.77;;
15202;SDS011;7702;51.046;5.184;2023-04-25T14:57:36;5.53;;;1.60;;
15202;SDS011;7702;51.046;5.184;2023-04-25T15:00:04;2.53;;;0.90;;
15202;SDS011;7702;51.046;5.184;2023-04-25T15:02:34;3.97;;;1.27;;
15202;SDS011;7702;51.046;5.184;2023-04-25T15:05:01;4.73;;;1.43;;
15202;SDS011;7702;51.046;5.184;2023-04-25T15:07:28;5.13;;;1.73;;
15202;SDS011;7702;51.046;5.184;2023-04-25T15:09:54;3.20;;;1.40;;
15202;SDS011;7702;51.046;5.184;2023-04-25T15:12:21;3.10;;;1.60;;
15202;SDS011;7702;51.046;5.184;2023-04-25T15:14:47;3.60;;;1.10;;
15202;SDS011;7702;51.046;5.184;2023-04-25T15:17:12;4.73;;;1.30;;
15202;SDS011;7702;51.046;5.184;2023-04-25T15:19:39;2.87;;;1.20;;
15202;SDS011;7702;51.046;5.184;2023-04-25T15:22:05;7.83;;;1.77;;
15202;SDS011;7702;51.046;5.184;2023-04-25T15:24:31;4.20;;;1.73;;
15202;SDS011;7702;51.046;5.184;2023-04-25T15:26:57;6.70;;;1.90;;